Goldfield, Nevada Weather observations

Data are for observation ending at time listed.
 Day   Time    Ave.   Ave.  Ave.  Vector   Max.   Stn.    Total    Solar   Ave.  
  of    of     Air    Rel.  Wind   Wind    Wind   Baro.  Precip.   Rad.    Soil  
Year   Day     Temp.  Hum.  Speed  Dir.    Gust   Pres.                    Temp. 
2015   (PST)    F      %     mph   deg.    mph     mb.     in.     W/m2     F   
------------------------------------------------------------------------------
 209   21:30   71.5    12    1.4     4      3.0   831.6    0.00       0    82.7
 209   21:40   71.0    12    2.2   290      8.3   831.7    0.00       0    82.5
 209   21:50   71.8    12    8.0   278     11.7   831.8    0.00       0    82.4
 209   22:00   72.9    12    7.4   278     10.2   831.7    0.00       0    82.2
 209   22:10   72.8    13    7.9   280     13.7   831.7    0.00       0    81.9
 209   22:20   72.4    13    7.0   283      9.9   831.7    0.00       0    81.7
 209   22:30   71.9    14    6.1   286      9.6   831.7    0.00       0    81.5
 209   22:40   70.7    14    5.5   285      7.2   831.8    0.00       0    81.2
 209   22:50   70.2    15    5.5   288      8.1   831.9    0.00       0    81.2
 209   23:00   69.1    15    4.3   291      5.7   832.0    0.00       0    81.0
 209   23:10   68.2    16    1.6     3      2.7   832.1    0.00       0    80.9
 209   23:20   67.2    16    0.6    22      1.8   832.1    0.00       0    80.6
 209   23:30   66.2    17    2.1   235      3.3   832.1    0.00       0    80.5
 209   23:40   65.6    17    0.9   104      2.0   832.1    0.00       0    80.3
 209   23:50   64.4    18    1.9    85      3.8   832.2    0.00       0    80.1
 210    0:00   64.4    17    3.8   130      5.0   832.3    0.00       0    80.1
 210    0:10   65.6    17    2.6   114      3.3   832.3    0.00       0    79.8
 210    0:20   64.6    17    2.1   127      2.8   832.3    0.00       0    79.6
 210    0:30   64.9    18    1.7   195      2.6   832.3    0.00       0    79.5
 210    0:40   65.2    17    1.7   243      2.1   832.2    0.00       0    79.2
 210    0:50   64.4    17    0.3    78      1.7   832.2    0.00       0    79.1
 210    1:00   62.9    18    0.9   107      2.4   832.2    0.00       0    78.9
 210    1:10   62.6    18    1.3   246      3.1   832.2    0.00       0    78.8
 210    1:20   62.7    18    1.0   273      3.2   832.2    0.00       0    78.7
 210    1:30   62.8    18    2.2   298      4.9   832.2    0.00       0    78.5
 210    1:40   62.8    18    2.1   321      3.6   832.2    0.00       0    78.3
 210    1:50   62.4    18    1.0   351      2.3   832.2    0.00       0    78.1
 210    2:00   61.7    19    0.9   330      2.2   832.2    0.00       0    77.9
 210    2:10   61.5    19    0.8   338      2.2   832.3    0.00       0    77.7
 210    2:20   61.6    19    4.2   295      7.2   832.3    0.00       0    77.6
 210    2:30   62.0    18    5.6   290      7.7   832.3    0.00       0    77.4
 210    2:40   62.6    18    7.0   292      9.2   832.4    0.00       0    77.2
 210    2:50   63.3    18    6.5   292      8.6   832.4    0.00       0    77.0
 210    3:00   62.6    18    6.1   292      8.3   832.4    0.00       0    76.9
 210    3:10   62.2    18    5.2   293      7.2   832.5    0.00       0    76.7
 210    3:20   61.4    18    4.1   284      6.0   832.6    0.00       0    76.6
 210    3:30   60.5    19    3.0   302      5.5   832.6    0.00       0    76.4
 210    3:40   59.8    19    0.8    24      1.8   832.6    0.00       0    76.3
 210    3:50   59.3    20    0.5   314      2.0   832.7    0.00       0    76.1
 210    4:00   58.6    20    1.5   265      2.7   832.7    0.00       0    76.0
 210    4:10   58.7    20    2.2   288      3.4   832.8    0.00       0    75.9
 210    4:20   58.3    20    0.2   330      1.8   832.8    0.00       0    75.7
 210    4:30   57.4    20    1.2   113      2.3   833.0    0.00       0    75.5
 210    4:40   57.3    20    2.2   166      2.9   833.2    0.00       0    75.3
 210    4:50   57.6    20    0.7   162      2.2   833.5    0.00       2    75.3
 210    5:00   58.0    20    0.6   237      1.5   833.7    0.00       7    74.9
 210    5:10   58.0    20    1.1   165      2.3   833.5    0.00      22    75.0
 210    5:20   59.3    19    0.4   221      1.6   833.4    0.00      56    74.6
 210    5:30   62.1    18    0.4    85      2.3   833.5    0.00      88    74.7
 210    5:40   62.7    18    0.7   129      2.0   833.5    0.00     121    74.5
 210    5:50   65.8    17    0.3    45      1.8   833.6    0.00     152    74.4
 210    6:00   65.6    17    1.7   104      2.6   833.8    0.00     187    74.2
 210    6:10   66.3    16    0.9   150      2.3   833.8    0.00     224    74.1
 210    6:20   68.8    15    2.6   314      4.5   833.9    0.00     268    74.1
 210    6:30   67.4    15    3.6   323      6.1   834.0    0.00     305    74.0
 210    6:40   67.9    15    3.5   330      6.0   834.0    0.00     339    74.0
 210    6:50   67.9    15    4.9   328      6.7   834.1    0.00     377    73.7
 210    7:00   67.9    15    5.4   336      8.8   834.1    0.00     411    73.8
 210    7:10   68.8    15    3.5   341      6.2   834.1    0.00     446    73.7
 210    7:20   70.4    14    3.1   351      5.6   834.1    0.00     479    73.5
 210    7:30   71.1    14    3.5   342      5.8   834.2    0.00     516    73.7
 210    7:40   72.2    13    4.5   340      7.2   834.1    0.00     552    73.8
 210    7:50   73.0    13    5.2   335      9.0   834.1    0.00     587    73.8
 210    8:00   73.6    12    6.5   320     10.3   834.2    0.00     621    74.0
 210    8:10   74.5    12    6.1   327     10.3   834.2    0.00     653    74.1
 210    8:20   74.8    12    5.9   336     11.4   834.2    0.00     682    74.5
 210    8:30   74.9    12    6.7   332     10.0   834.2    0.00     713    74.8
 210    8:40   75.2    11    6.1   332     11.2   834.1    0.00     743    75.0
 210    8:50   76.0    11    6.0   329      9.4   834.0    0.00     772    75.2
 210    9:00   76.6    11    5.2   332      9.8   834.1    0.00     799    75.8
 210    9:10   77.4    11    4.6   342      7.9   834.2    0.00     824    76.3
 210    9:20   78.6    10    3.2     0      7.5   834.2    0.00     846    76.7
 210    9:30   79.2    10    4.4     6     10.2   834.2    0.00     868    77.0
 210    9:40   80.2    10    1.9    95      4.4   834.2    0.00     889    77.5
 210    9:50   80.8    10    2.9   324      8.6   834.3    0.00     915    78.0
 210   10:00   82.2    10    2.9   340      7.6   834.1    0.00     933    78.5
 210   10:10   82.4    10    2.8     5      6.3   833.9    0.00     951    79.0
 210   10:20   83.2     9    1.6    23      5.9   834.2    0.00     966    79.5
 210   10:30   84.1     9    3.2    25      8.6   834.0    0.00     982    80.1
 210   10:40   84.3     9    3.7    24      7.7   833.7    0.00     994    80.7
 210   10:50   84.3     9    5.1     9     11.0   833.5    0.00    1005    81.2
 210   11:00   85.9     9    3.5   337      8.2   833.5    0.00    1013    81.9
 210   11:10   85.7     9    5.4   334      8.7   833.4    0.00    1022    82.6
 210   11:20   85.0     9    4.3     2      8.4   833.3    0.00    1027    83.2
 210   11:30   86.5     9    3.0   160      8.0   833.3    0.00    1030    83.8
 210   11:40   86.5     9    6.2   129     13.6   833.2    0.00    1032    84.4
 210   11:50   86.1     9    7.1   163     17.8   833.2    0.00    1035    85.0
 210   12:00   87.0     9    5.4   124     14.2   833.1    0.00    1034    85.5
 210   12:10   88.4     9    5.6   106     15.6   833.0    0.00    1032    86.0
 210   12:20   86.7     9   10.1   104     17.5   833.0    0.00    1027    86.4
 210   12:30   87.4     8    3.0    74      6.9   833.0    0.00    1021    86.9
 210   12:40   87.7     9    7.7    95     13.7   832.9    0.00    1012    87.3
 210   12:50   87.7     9    6.1    60     14.0   832.8    0.00    1002    87.7
 210   13:00   88.3     9    9.7    96     18.8   832.7    0.00     992    88.1
 210   13:10   88.3     9    5.5   128     14.8   832.7    0.00     981    88.5
 210   13:20   88.8     9    6.8   130     16.2   832.6    0.00     969    88.8
 210   13:30   88.5     9    8.0    95     17.9   832.6    0.00     952    89.0
 210   13:40   88.5     8    8.7    96     15.6   832.8    0.00     937    89.2
 210   13:50   89.1     8    6.0   143     14.0   832.6    0.00     920    89.2
 210   14:00   89.0     8    4.5   110     10.2   832.4    0.00     902    89.3
 210   14:10   89.1     8    8.3   103     16.4   832.3    0.00     880    89.3
 210   14:20   88.7     8    5.5   167     17.8   832.3    0.00     858    89.3
 210   14:30   89.0     8    4.8   136     11.4   832.2    0.00     834    89.3
 210   14:40   89.0     8    4.6   342     10.3   832.0    0.00     810    89.3
 210   14:50   90.3     8    2.4   128      7.3   831.9    0.00     782    89.1
 210   15:00   90.3     8    4.6    49     12.7   831.8    0.00     751    89.5
 210   15:10   90.3     8    5.9    84     10.2   831.6    0.00     722    89.4
 210   15:20   89.2     8    6.1   132     10.4   831.5    0.00     692    89.5
 210   15:30   90.6     8    7.0   177     14.1   831.3    0.00     663    89.7
 210   15:40   89.7     8    6.0   145     14.8   831.3    0.00     631    89.7
 210   15:50   90.8     8    5.2   183     12.1   831.2    0.00     600    89.8
 210   16:00   89.3     8    5.9   139     11.8   831.2    0.00     567    89.8
 210   16:10   89.9     8    4.1    62      8.7   831.2    0.00     534    89.7
 210   16:20   89.9     8    3.4    54      8.0   831.1    0.00     501    89.6
 210   16:30   90.8     8    3.8   125      9.7   831.1    0.00     467    89.3
 210   16:40   89.3     8    7.5   111     13.2   831.1    0.00     432    89.2
 210   16:50   89.2     8    4.9   108      9.7   831.1    0.00     397    89.2
 210   17:00   89.3     8    6.9   115     11.1   831.1    0.00     363    89.0
 210   17:10   89.8     8    6.3    76     12.7   831.1    0.00     328    88.9
 210   17:20   89.8     8    5.4    70     10.8   831.1    0.00     292    88.6
 210   17:30   89.6     9    6.1   153     14.4   831.2    0.00     233    88.6
 210   17:40   88.6     9    7.9   123     12.9   831.2    0.00     186    88.4
 210   17:50   87.3     9    7.0   120     11.8   831.3    0.00     113    88.3
 210   18:00   88.3     9    5.0   101      9.1   831.4    0.00     162    88.2
 210   18:10   88.2     9    5.9   127      9.2   831.4    0.00     133    88.2
 210   18:20   87.0     9    5.9   123      9.9   831.3    0.00     102    87.9
 210   18:30   86.0     9    5.6   116      9.6   831.4    0.00      70    87.7
 210   18:40   85.5     9    4.6   154      7.6   831.4    0.00      31    87.5
 210   18:50   84.8     9    3.7   141      6.4   831.4    0.00      14    87.4
 210   19:00   83.5    10    4.0   128      5.8   831.5    0.00      10    87.3
 210   19:10   82.3    10    3.8   134      5.1   831.6    0.00       4    87.0
 210   19:20   81.7    10    4.4   151      7.5   831.7    0.00       2    86.9
 210   19:30   81.9    10    4.4   156      5.6   831.8    0.00       0    86.8
 210   19:40   80.7    10    3.4   143      5.0   831.9    0.00       0    86.5
 210   19:50   79.7    10    4.2   136      5.6   832.0    0.00       0    86.3
 210   20:00   79.0    11    5.1   157      8.3   832.1    0.00       0    86.2
 210   20:10   78.5    11    5.7   186      7.2   832.2    0.00       0    86.0
 210   20:20   78.2    11    6.8   189      8.0   832.3    0.00       0    85.8
 210   20:30   78.3    10    7.8   196     10.2   832.3    0.00       0    85.6
 210   20:40   78.7    11    6.6   184      8.5   832.3    0.00       0    85.4
 210   20:50   78.4    11    7.3   198      9.2   832.4    0.00       0    85.2
 210   21:00   77.8    11    7.4   197      9.8   832.5    0.00       0    85.0
 210   21:10   77.4    11    7.6   184     10.2   832.5    0.00       0    84.8
 210   21:20   77.8    11    8.0   183     10.1   832.5    0.00       0    84.7

Return to Goldfield, Nevada graphs page.


Western Regional Climate Center,wrcc@dri.edu